Time;durP1;ratioP1;P1;durP2;ratioP2;P2;SDS_P1;SDS_P2;PMS_P1;PMS_P2;Temp;Humidity;BMP_temperature;BMP_pressure;BME280_temperature;BME280_humidity;BME280_pressure;Samples;Min_cycle;Max_cycle;Signal;HPM_P1;HPM_P2
2022/10/23 00:01:00;;;;;;;26.33;14.00;;;10.70;94.40;;;;;;5035019;28;20041;-75
2022/10/23 00:03:25;;;;;;;21.15;11.63;;;10.80;94.40;;;;;;5051991;28;20106;-75
2022/10/23 00:05:51;;;;;;;20.90;12.52;;;10.70;94.40;;;;;;5051940;28;20037;-75
2022/10/23 00:08:17;;;;;;;22.00;12.32;;;10.80;94.40;;;;;;5051649;28;20049;-75
2022/10/23 00:10:43;;;;;;;23.10;13.45;;;10.70;94.30;;;;;;5051513;28;20056;-76
2022/10/23 00:13:09;;;;;;;31.30;13.48;;;10.80;94.70;;;;;;5051829;28;20052;-75
2022/10/23 00:15:35;;;;;;;27.05;14.48;;;10.80;95.10;;;;;;5051529;28;20051;-75
2022/10/23 00:18:02;;;;;;;29.63;15.20;;;10.90;95.10;;;;;;5034827;28;20128;-75
2022/10/23 00:20:28;;;;;;;20.00;11.00;;;11.00;95.10;;;;;;5051677;28;20146;-75
2022/10/23 00:22:53;;;;;;;28.80;12.55;;;11.00;95.10;;;;;;5051556;28;20561;-77
2022/10/23 00:25:19;;;;;;;24.98;12.25;;;11.00;95.10;;;;;;5034883;28;20106;-74
2022/10/23 00:27:45;;;;;;;27.13;14.52;;;11.00;95.00;;;;;;5035223;28;20120;-76
2022/10/23 00:30:11;;;;;;;29.98;13.85;;;11.00;95.20;;;;;;5052557;28;20071;-76
2022/10/23 00:32:37;;;;;;;36.28;15.50;;;11.00;95.10;;;;;;5055813;28;20470;-77
2022/10/23 00:35:03;;;;;;;24.48;14.60;;;11.00;95.20;;;;;;5055542;28;20084;-75
2022/10/23 00:37:29;;;;;;;20.33;12.55;;;11.00;95.20;;;;;;5038840;28;20045;-76
2022/10/23 00:39:55;;;;;;;21.88;12.57;;;11.00;95.20;;;;;;5055628;28;20045;-76
2022/10/23 00:42:20;;;;;;;21.50;13.35;;;10.90;95.20;;;;;;5055317;28;20033;-76
2022/10/23 00:44:49;;;;;;;26.23;14.10;;;10.90;95.00;;;;;;5055356;28;20043;-75
2022/10/23 00:47:15;;;;;;;24.17;14.38;;;10.80;94.90;;;;;;5055323;28;20043;-76
2022/10/23 00:49:41;;;;;;;23.00;14.60;;;10.80;94.80;;;;;;5055476;28;20397;-76
2022/10/23 00:52:10;;;;;;;23.63;13.25;;;10.70;94.70;;;;;;5038570;28;20041;-76
2022/10/23 00:54:39;;;;;;;22.88;14.00;;;10.60;94.70;;;;;;5055487;28;20048;-74
2022/10/23 00:57:10;;;;;;;22.55;13.60;;;10.60;94.80;;;;;;5054990;28;20056;-76
2022/10/23 00:59:36;;;;;;;28.20;15.52;;;10.60;94.80;;;;;;5055029;28;20052;-75
2022/10/23 01:02:03;;;;;;;25.48;14.30;;;10.60;95.00;;;;;;5054906;28;20087;-76
2022/10/23 01:04:29;;;;;;;24.58;15.73;;;10.60;95.20;;;;;;5055253;28;20094;-76
2022/10/23 01:07:03;;;;;;;23.25;14.60;;;10.60;95.20;;;;;;5055226;28;20063;-76
2022/10/23 01:09:35;;;;;;;22.52;13.13;;;10.70;95.20;;;;;;5055246;28;20068;-76
2022/10/23 01:12:17;;;;;;;23.90;14.57;;;10.60;95.10;;;;;;5054811;28;20486;-77
2022/10/23 01:14:45;;;;;;;18.90;12.55;;;10.50;94.90;;;;;;5055050;28;20443;-75
2022/10/23 01:17:38;;;;;;;20.52;12.55;;;10.40;94.80;;;;;;5054786;28;20084;-74
2022/10/23 01:20:26;;;;;;;21.90;13.75;;;10.40;94.80;;;;;;5054749;28;20074;-77
2022/10/23 01:23:21;;;;;;;23.52;14.57;;;10.30;95.00;;;;;;5054726;28;20040;-75
2022/10/23 01:25:57;;;;;;;20.80;13.48;;;10.40;95.00;;;;;;5054716;28;20047;-77
2022/10/23 01:28:29;;;;;;;22.30;14.23;;;10.40;95.20;;;;;;5054664;28;20041;-77
2022/10/23 01:30:58;;;;;;;20.13;14.27;;;10.40;95.10;;;;;;5054571;28;20059;-74
2022/10/23 01:33:46;;;;;;;23.48;14.00;;;10.40;95.10;;;;;;5054671;28;20444;-76
2022/10/23 01:36:14;;;;;;;22.45;13.40;;;10.30;95.00;;;;;;5038092;28;20045;-75
2022/10/23 01:38:46;;;;;;;24.33;15.10;;;10.30;95.00;;;;;;5054350;28;20099;-76
2022/10/23 01:41:26;;;;;;;20.17;13.30;;;10.30;95.10;;;;;;5054515;28;20033;-74
2022/10/23 01:44:07;;;;;;;27.70;14.35;;;10.30;95.10;;;;;;5054333;28;20041;-75
2022/10/23 01:46:37;;;;;;;20.17;14.00;;;10.30;95.20;;;;;;5054562;28;20432;-75
2022/10/23 01:49:06;;;;;;;17.52;12.10;;;10.30;95.20;;;;;;5037653;28;20120;-76
2022/10/23 01:51:35;;;;;;;18.48;11.90;;;10.30;95.00;;;;;;5054099;28;20049;-76
2022/10/23 01:54:04;;;;;;;19.27;13.52;;;10.30;95.00;;;;;;5054088;28;20147;-76
2022/10/23 01:56:33;;;;;;;21.80;15.10;;;10.20;94.90;;;;;;5053702;28;20048;-75
2022/10/23 01:59:07;;;;;;;18.23;13.10;;;10.20;94.90;;;;;;5037397;28;20041;-76
2022/10/23 02:01:35;;;;;;;17.95;12.93;;;10.20;94.90;;;;;;5054238;28;20439;-75
2022/10/23 02:04:04;;;;;;;20.70;12.65;;;10.20;94.90;;;;;;5053905;28;20041;-77
2022/10/23 02:06:30;;;;;;;21.58;14.27;;;10.30;94.90;;;;;;5054143;28;20048;-77
2022/10/23 02:08:56;;;;;;;21.50;13.68;;;10.20;94.80;;;;;;5053999;28;20045;-76
2022/10/23 02:11:22;;;;;;;16.63;13.45;;;10.20;94.80;;;;;;5053694;28;20052;-75
2022/10/23 02:14:17;;;;;;;20.58;14.75;;;10.20;94.90;;;;;;5053988;28;20044;-75
2022/10/23 02:16:57;;;;;;;23.77;15.23;;;10.20;94.80;;;;;;5053906;28;20048;-74
2022/10/23 02:19:56;;;;;;;18.60;13.63;;;10.20;94.80;;;;;;5053533;28;20041;-75
2022/10/23 02:22:27;;;;;;;22.52;14.77;;;10.20;94.80;;;;;;5032303;28;20049;-76
2022/10/23 02:24:59;;;;;;;19.80;14.45;;;10.10;94.80;;;;;;5053880;28;20446;-74
2022/10/23 02:27:39;;;;;;;17.33;12.82;;;10.10;94.70;;;;;;5053703;28;20102;-76
2022/10/23 02:30:10;;;;;;;25.17;13.77;;;10.10;94.70;;;;;;5053548;28;20053;-77
2022/10/23 02:32:43;;;;;;;20.55;13.35;;;10.10;94.70;;;;;;5053445;28;20079;-75
2022/10/23 02:35:09;;;;;;;23.13;14.05;;;10.10;94.70;;;;;;5053634;28;20049;-76
2022/10/23 02:37:35;;;;;;;21.92;15.65;;;10.10;94.60;;;;;;5053289;28;20072;-75
2022/10/23 02:40:02;;;;;;;25.30;17.13;;;10.10;94.80;;;;;;5053148;28;20099;-76
2022/10/23 02:42:38;;;;;;;22.10;14.48;;;10.10;94.80;;;;;;5036766;28;20048;-74
2022/10/23 02:45:22;;;;;;;26.70;14.77;;;10.20;94.80;;;;;;5053475;28;20473;-75
2022/10/23 02:48:07;;;;;;;22.88;13.63;;;10.20;94.80;;;;;;5053467;28;20040;-76
2022/10/23 02:50:50;;;;;;;20.50;13.38;;;10.10;94.70;;;;;;5052898;28;20052;-76
2022/10/23 02:53:46;;;;;;;22.08;15.45;;;10.10;94.70;;;;;;5036124;28;20094;-76
2022/10/23 02:56:22;;;;;;;19.75;13.68;;;10.10;94.70;;;;;;5052958;28;20051;-76
2022/10/23 02:59:04;;;;;;;18.95;13.60;;;10.10;94.60;;;;;;5052795;28;20045;-77
2022/10/23 03:01:39;;;;;;;18.20;12.77;;;10.10;94.70;;;;;;5052729;28;20045;-75
2022/10/23 03:04:08;;;;;;;22.30;13.98;;;10.10;94.70;;;;;;5052793;28;20047;-77
2022/10/23 03:06:34;;;;;;;35.50;16.42;;;10.10;94.70;;;;;;5052992;28;20045;-75
2022/10/23 03:09:04;;;;;;;23.90;14.30;;;10.10;94.80;;;;;;5052955;28;20040;-76
2022/10/23 03:11:30;;;;;;;19.45;13.98;;;10.00;94.80;;;;;;5052834;28;20393;-75
2022/10/23 03:13:55;;;;;;;16.50;12.07;;;10.10;94.80;;;;;;5036370;28;20047;-76
2022/10/23 03:16:21;;;;;;;18.70;12.75;;;10.00;94.80;;;;;;5036002;28;20492;-74
2022/10/23 03:18:47;;;;;;;17.77;12.00;;;10.00;94.70;;;;;;5019402;28;20076;-75
2022/10/23 03:21:12;;;;;;;19.13;13.50;;;10.00;94.70;;;;;;5052383;28;20036;-76
2022/10/23 03:23:38;;;;;;;31.75;14.63;;;10.00;94.70;;;;;;5052653;28;20044;-75
2022/10/23 03:26:04;;;;;;;22.67;14.48;;;10.00;94.80;;;;;;5052623;28;20041;-76
2022/10/23 03:28:30;;;;;;;22.40;14.10;;;10.00;94.80;;;;;;5052568;28;20033;-77
2022/10/23 03:30:56;;;;;;;19.90;14.35;;;10.00;94.90;;;;;;5052237;28;20466;-74
2022/10/23 03:33:21;;;;;;;20.48;15.55;;;10.00;94.90;;;;;;5052480;28;20056;-74
2022/10/23 03:35:48;;;;;;;25.38;15.40;;;10.10;95.00;;;;;;5052170;28;20421;-76
2022/10/23 03:38:14;;;;;;;28.60;16.60;;;10.10;95.00;;;;;;5035666;28;20051;-76
2022/10/23 03:40:41;;;;;;;23.15;15.15;;;10.10;95.00;;;;;;5035652;28;20515;-76
2022/10/23 03:43:07;;;;;;;27.95;17.58;;;10.10;95.00;;;;;;5052120;28;20492;-76
2022/10/23 03:45:33;;;;;;;23.77;16.70;;;10.20;95.10;;;;;;5052337;28;20037;-77
2022/10/23 03:47:59;;;;;;;25.33;16.10;;;10.10;95.10;;;;;;5052049;28;20043;-76
2022/10/23 03:50:24;;;;;;;24.23;16.73;;;10.20;95.20;;;;;;5052117;28;20036;-75
2022/10/23 03:52:50;;;;;;;24.15;14.80;;;10.30;95.20;;;;;;5051892;28;20481;-76
2022/10/23 03:55:16;;;;;;;25.25;16.40;;;10.30;95.20;;;;;;5051805;28;20072;-75
2022/10/23 03:57:41;;;;;;;22.27;15.02;;;10.30;95.10;;;;;;5051698;28;20072;-76
2022/10/23 04:00:08;;;;;;;24.58;15.50;;;10.30;95.10;;;;;;5051639;28;20107;-76
2022/10/23 04:02:34;;;;;;;29.50;16.25;;;10.30;95.20;;;;;;5051727;28;20072;-77
2022/10/23 04:05:00;;;;;;;24.55;14.75;;;10.40;95.20;;;;;;5051169;28;20087;-77
2022/10/23 04:07:25;;;;;;;32.00;19.30;;;10.40;95.30;;;;;;5051663;28;20041;-75
2022/10/23 04:09:51;;;;;;;34.05;19.65;;;10.40;95.30;;;;;;5051613;28;20048;-75
2022/10/23 04:12:17;;;;;;;25.90;17.80;;;10.50;95.30;;;;;;5035299;28;20049;-75
2022/10/23 04:14:43;;;;;;;32.25;20.73;;;10.50;95.30;;;;;;5051631;28;20559;-76
2022/10/23 04:17:08;;;;;;;30.80;18.95;;;10.50;95.20;;;;;;5051725;28;20049;-75
2022/10/23 04:19:34;;;;;;;30.98;20.27;;;10.50;95.30;;;;;;5051473;28;20037;-75
2022/10/23 04:22:00;;;;;;;26.52;18.48;;;10.50;95.60;;;;;;5035169;28;20037;-74
2022/10/23 04:24:25;;;;;;;23.13;15.63;;;10.50;95.60;;;;;;5051679;28;20481;-75
2022/10/23 04:26:52;;;;;;;27.17;17.30;;;10.60;95.60;;;;;;5051467;28;20120;-75
2022/10/23 04:29:21;;;;;;;25.35;18.30;;;10.60;95.60;;;;;;5051165;28;20051;-75
2022/10/23 04:31:47;;;;;;;37.97;19.30;;;10.60;95.50;;;;;;5054617;28;20045;-74
2022/10/23 04:34:13;;;;;;;23.88;16.85;;;10.50;95.50;;;;;;5071441;28;20116;-75
2022/10/23 04:36:39;;;;;;;26.55;17.88;;;10.50;95.50;;;;;;5055064;28;20143;-75
2022/10/23 04:39:04;;;;;;;25.23;17.58;;;10.50;95.50;;;;;;5071349;28;20036;-74
2022/10/23 04:41:30;;;;;;;25.35;17.27;;;10.50;95.40;;;;;;5071405;28;20477;-75
2022/10/23 04:43:56;;;;;;;23.45;16.38;;;10.50;95.50;;;;;;5071603;28;20040;-74
2022/10/23 04:46:21;;;;;;;26.08;16.38;;;10.50;95.40;;;;;;5071364;28;20477;-75
2022/10/23 04:48:47;;;;;;;22.02;16.10;;;10.50;95.40;;;;;;5071385;28;20055;-76
2022/10/23 04:51:13;;;;;;;24.13;15.80;;;10.50;95.40;;;;;;5071498;28;20225;-77
2022/10/23 04:53:38;;;;;;;25.13;15.82;;;10.40;95.40;;;;;;5071216;28;20536;-77
2022/10/23 04:56:05;;;;;;;20.98;14.32;;;10.40;95.50;;;;;;5071323;28;20048;-76
2022/10/23 04:58:30;;;;;;;22.25;14.20;;;10.40;95.40;;;;;;5070974;28;20493;-76
2022/10/23 05:00:57;;;;;;;19.98;12.77;;;10.40;95.50;;;;;;5054525;28;20040;-75
2022/10/23 05:03:24;;;;;;;20.00;13.80;;;10.40;95.50;;;;;;5071191;28;20048;-76
2022/10/23 05:05:52;;;;;;;21.45;16.63;;;10.40;95.50;;;;;;5054433;28;20119;-76
2022/10/23 05:08:17;;;;;;;25.08;15.48;;;10.30;95.60;;;;;;5071377;28;20067;-76
2022/10/23 05:10:43;;;;;;;26.98;17.15;;;10.30;95.50;;;;;;5071091;28;20048;-75
2022/10/23 05:13:09;;;;;;;26.80;15.82;;;10.30;95.60;;;;;;5054449;28;20076;-77
2022/10/23 05:15:34;;;;;;;24.83;15.60;;;10.30;95.60;;;;;;5054510;28;20040;-76
2022/10/23 05:18:11;;;;;;;23.42;14.98;;;10.20;95.50;;;;;;5058293;28;20041;-77
2022/10/23 05:20:38;;;;;;;22.05;15.68;;;10.20;95.50;;;;;;5058076;28;20040;-75
2022/10/23 05:23:07;;;;;;;21.90;13.98;;;10.10;95.40;;;;;;5074953;28;20439;-77
2022/10/23 05:25:34;;;;;;;24.40;15.25;;;10.10;95.40;;;;;;5074670;28;20481;-74
2022/10/23 05:27:59;;;;;;;23.20;14.65;;;10.10;95.40;;;;;;5074640;28;20078;-75
2022/10/23 05:30:25;;;;;;;19.88;14.32;;;10.10;95.40;;;;;;5074523;28;20037;-74
2022/10/23 05:32:51;;;;;;;25.73;16.08;;;10.10;95.40;;;;;;5074780;28;20134;-75
2022/10/23 05:35:21;;;;;;;22.67;14.95;;;10.10;95.40;;;;;;5074693;28;20546;-75
2022/10/23 05:37:48;;;;;;;24.20;16.33;;;10.10;95.40;;;;;;5074438;28;20047;-74
2022/10/23 05:40:14;;;;;;;26.90;17.10;;;10.00;95.40;;;;;;5074251;28;20044;-74
2022/10/23 05:42:40;;;;;;;25.10;16.23;;;10.10;95.40;;;;;;5074331;28;20507;-74
2022/10/23 05:45:06;;;;;;;21.13;15.25;;;10.10;95.50;;;;;;5074269;28;20044;-74
2022/10/23 05:47:32;;;;;;;22.90;15.07;;;10.10;95.50;;;;;;5074501;28;20370;-74
2022/10/23 05:49:57;;;;;;;30.75;19.85;;;10.10;95.40;;;;;;5074154;28;20055;-75
2022/10/23 05:52:23;;;;;;;19.50;15.77;;;10.10;95.90;;;;;;5057465;28;20127;-74
2022/10/23 05:54:52;;;;;;;30.15;19.63;;;10.20;95.70;;;;;;5074356;28;20044;-74
2022/10/23 05:57:18;;;;;;;28.23;18.85;;;10.20;95.70;;;;;;5057110;28;20511;-73
2022/10/23 05:59:44;;;;;;;26.35;18.60;;;10.20;95.70;;;;;;5073913;28;20052;-76
2022/10/23 06:02:10;;;;;;;26.58;19.27;;;10.20;95.70;;;;;;5073875;28;20124;-74
2022/10/23 06:04:35;;;;;;;33.13;19.65;;;10.30;95.80;;;;;;5074098;28;20044;-74
2022/10/23 06:07:02;;;;;;;32.97;22.50;;;10.30;96.00;;;;;;5073897;28;20047;-74
2022/10/23 06:09:28;;;;;;;30.52;19.00;;;10.30;96.00;;;;;;5074151;28;20396;-75
2022/10/23 06:11:54;;;;;;;37.22;22.67;;;10.40;96.00;;;;;;5073739;28;20117;-74
2022/10/23 06:14:19;;;;;;;26.92;18.13;;;10.40;96.00;;;;;;5073762;28;20040;-74
2022/10/23 06:16:45;;;;;;;32.00;22.85;;;10.40;95.90;;;;;;5057043;28;20044;-73
2022/10/23 06:19:12;;;;;;;32.35;22.38;;;10.50;96.00;;;;;;5056824;28;20048;-74
2022/10/23 06:21:39;;;;;;;31.98;20.95;;;10.50;96.10;;;;;;5056593;28;20465;-72
2022/10/23 06:24:06;;;;;;;22.65;16.85;;;10.50;96.00;;;;;;5073279;28;20378;-74
2022/10/23 06:26:31;;;;;;;25.48;17.48;;;10.50;96.00;;;;;;5073136;28;20044;-73
2022/10/23 06:28:57;;;;;;;28.67;20.15;;;10.50;96.10;;;;;;5055626;28;20045;-75
2022/10/23 06:31:27;;;;;;;26.05;18.98;;;10.50;96.00;;;;;;5073304;28;20041;-75
2022/10/23 06:33:56;;;;;;;29.45;21.27;;;10.50;96.00;;;;;;5073357;28;20238;-74
2022/10/23 06:36:23;;;;;;;33.45;23.55;;;10.60;96.20;;;;;;5073597;28;20045;-73
2022/10/23 06:38:49;;;;;;;31.98;21.13;;;10.60;96.20;;;;;;5073101;28;20108;-73
2022/10/23 06:41:17;;;;;;;34.03;20.55;;;10.70;96.10;;;;;;5073132;28;20128;-75
2022/10/23 06:43:45;;;;;;;30.27;22.23;;;10.70;96.30;;;;;;5056511;28;20551;-77
2022/10/23 06:46:11;;;;;;;30.77;22.05;;;10.80;96.40;;;;;;5073298;28;20388;-75
2022/10/23 06:48:37;;;;;;;25.45;16.92;;;10.80;96.10;;;;;;5073036;28;20124;-75
2022/10/23 06:51:06;;;;;;;33.50;22.17;;;10.80;96.20;;;;;;5073462;28;20400;-74
2022/10/23 06:53:32;;;;;;;28.13;20.77;;;10.80;96.20;;;;;;5073067;28;20124;-77
2022/10/23 06:55:59;;;;;;;31.95;21.45;;;10.90;96.30;;;;;;5056359;28;20041;-75
2022/10/23 06:58:25;;;;;;;34.25;23.45;;;10.90;96.20;;;;;;5072759;28;20465;-74
2022/10/23 07:00:51;;;;;;;29.90;19.45;;;10.90;96.10;;;;;;5072775;28;20074;-76
2022/10/23 07:03:16;;;;;;;33.90;22.08;;;10.90;96.20;;;;;;5072769;28;20037;-74
2022/10/23 07:05:46;;;;;;;33.45;22.00;;;11.00;96.50;;;;;;5072777;28;20040;-72
2022/10/23 07:08:12;;;;;;;29.08;21.42;;;11.00;96.70;;;;;;5072899;28;20040;-73
2022/10/23 07:10:41;;;;;;;30.50;20.73;;;11.00;96.40;;;;;;5072593;28;20045;-75
2022/10/23 07:13:10;;;;;;;29.40;19.65;;;11.10;96.70;;;;;;5056225;28;20037;-75
2022/10/23 07:15:38;;;;;;;29.25;18.13;;;11.10;96.70;;;;;;5072771;28;20361;-78
2022/10/23 07:18:04;;;;;;;27.02;19.50;;;11.10;96.50;;;;;;5072376;28;20044;-75
2022/10/23 07:20:30;;;;;;;31.45;21.70;;;11.20;96.80;;;;;;5072837;28;20044;-75
2022/10/23 07:22:57;;;;;;;24.65;19.52;;;11.20;96.60;;;;;;5072636;28;20370;-76
2022/10/23 07:25:24;;;;;;;25.63;17.98;;;11.20;96.60;;;;;;5072341;28;20139;-75
2022/10/23 07:27:51;;;;;;;35.88;22.23;;;11.20;96.50;;;;;;5072517;28;20105;-74
2022/10/23 07:30:17;;;;;;;36.40;23.23;;;11.30;96.60;;;;;;5072449;28;20461;-75
2022/10/23 07:32:43;;;;;;;27.70;17.80;;;11.30;96.50;;;;;;5072225;28;20064;-74
2022/10/23 07:35:11;;;;;;;18.88;14.30;;;11.30;96.40;;;;;;5072247;28;20127;-74
2022/10/23 07:37:37;;;;;;;30.42;20.35;;;11.40;96.50;;;;;;5055740;28;20040;-75
2022/10/23 07:40:06;;;;;;;31.55;18.83;;;11.40;96.50;;;;;;5055283;28;20040;-73
2022/10/23 07:42:32;;;;;;;21.75;15.82;;;11.40;96.50;;;;;;5055333;28;20125;-75
2022/10/23 07:44:58;;;;;;;28.33;21.10;;;11.50;96.60;;;;;;5071938;28;20036;-75
2022/10/23 07:47:23;;;;;;;22.17;16.17;;;11.50;96.50;;;;;;5071841;28;20047;-74
2022/10/23 07:49:49;;;;;;;28.73;19.95;;;11.50;96.40;;;;;;5055605;28;20130;-74
2022/10/23 07:52:15;;;;;;;27.85;20.08;;;11.60;96.70;;;;;;5055259;28;20507;-75
2022/10/23 07:54:41;;;;;;;28.13;20.25;;;11.60;96.60;;;;;;5072158;28;20036;-76
2022/10/23 07:57:06;;;;;;;27.70;16.73;;;11.60;96.40;;;;;;5071657;28;20580;-75
2022/10/23 07:59:33;;;;;;;26.88;18.98;;;11.60;96.50;;;;;;5071718;28;20048;-75
2022/10/23 08:01:59;;;;;;;24.10;15.88;;;11.70;96.50;;;;;;5071731;28;20494;-75
2022/10/23 08:04:25;;;;;;;34.15;18.13;;;11.70;96.50;;;;;;5071759;28;20051;-75
2022/10/23 08:06:51;;;;;;;36.30;22.17;;;11.80;96.50;;;;;;5072027;28;20037;-75
2022/10/23 08:09:17;;;;;;;28.23;19.02;;;11.80;96.30;;;;;;5055048;28;20488;-77
2022/10/23 08:11:42;;;;;;;30.98;19.45;;;11.80;96.50;;;;;;5071599;28;20059;-74
2022/10/23 08:14:09;;;;;;;29.15;19.13;;;11.90;96.40;;;;;;5071714;28;20139;-75
2022/10/23 08:16:38;;;;;;;28.95;19.30;;;11.90;96.40;;;;;;5054561;28;20078;-75
2022/10/23 08:19:05;;;;;;;29.20;18.77;;;12.00;96.60;;;;;;5070995;28;20532;-74
2022/10/23 08:21:31;;;;;;;21.48;15.63;;;12.00;96.70;;;;;;5070830;28;20551;-77
2022/10/23 08:23:58;;;;;;;27.30;18.77;;;12.00;96.70;;;;;;5071895;28;20396;-75
2022/10/23 08:26:24;;;;;;;22.38;15.73;;;12.10;96.70;;;;;;5071739;28;20089;-76
2022/10/23 08:28:51;;;;;;;31.05;19.73;;;12.10;96.60;;;;;;5071499;28;20131;-78
2022/10/23 08:31:19;;;;;;;21.33;16.70;;;12.20;96.80;;;;;;5071643;28;20051;-77
2022/10/23 08:33:45;;;;;;;23.50;16.00;;;12.20;96.60;;;;;;5071464;28;20493;-74
2022/10/23 08:36:23;;;;;;;29.45;18.35;;;12.30;96.60;;;;;;5071507;28;20041;-77
2022/10/23 08:38:50;;;;;;;21.17;14.93;;;12.30;96.50;;;;;;5071341;28;20041;-76
2022/10/23 08:41:40;;;;;;;23.98;16.73;;;12.40;96.70;;;;;;5071356;28;20063;-76
2022/10/23 08:44:35;;;;;;;23.30;16.23;;;12.40;96.70;;;;;;5071423;28;20036;-75
2022/10/23 08:47:04;;;;;;;;;;;12.50;96.60;;;;;;5055624;28;20035;-75
2022/10/23 08:49:42;;;;;;;33.40;16.40;;;12.50;96.80;;;;;;5071627;28;19916;-76
2022/10/23 08:52:36;;;;;;;25.83;17.83;;;12.50;96.50;;;;;;5073894;28;20057;-78
2022/10/23 08:55:21;;;;;;;23.00;16.08;;;12.60;96.60;;;;;;5059131;28;20052;-77
2022/10/23 08:58:04;;;;;;;25.13;15.93;;;12.60;96.50;;;;;;5078844;28;20052;-75
2022/10/23 09:00:31;;;;;;;19.95;14.85;;;12.70;96.50;;;;;;5075633;28;20067;-75
2022/10/23 09:03:02;;;;;;;22.05;15.25;;;12.70;96.50;;;;;;5075063;28;20123;-76
2022/10/23 09:05:50;;;;;;;23.45;15.80;;;12.80;96.40;;;;;;5075341;28;20488;-77
2022/10/23 09:08:40;;;;;;;20.23;14.85;;;12.80;96.40;;;;;;5075295;28;20043;-78
2022/10/23 09:11:27;;;;;;;20.33;15.65;;;12.90;96.50;;;;;;5075212;28;20093;-76
2022/10/23 09:14:30;;;;;;;17.63;14.23;;;12.90;96.40;;;;;;5058251;28;20036;-75
2022/10/23 09:17:11;;;;;;;18.27;14.30;;;13.00;96.40;;;;;;5074855;28;20618;-76
2022/10/23 09:19:37;;;;;;;23.55;16.75;;;13.00;96.30;;;;;;5074883;28;20040;-77
2022/10/23 09:22:04;;;;;;;24.73;14.10;;;13.10;96.40;;;;;;5075003;28;20132;-75
2022/10/23 09:24:32;;;;;;;21.73;15.32;;;13.10;96.20;;;;;;5074625;28;20036;-75
2022/10/23 09:26:59;;;;;;;20.48;15.05;;;13.20;96.20;;;;;;5074617;28;20045;-75
2022/10/23 09:29:25;;;;;;;22.83;15.30;;;13.20;96.20;;;;;;5074580;28;20078;-76
2022/10/23 09:31:56;;;;;;;20.23;14.23;;;13.20;96.20;;;;;;5074501;28;20092;-75
2022/10/23 09:34:24;;;;;;;20.52;14.27;;;13.30;96.20;;;;;;5074621;28;20037;-78
2022/10/23 09:37:21;;;;;;;20.05;13.35;;;13.30;96.20;;;;;;5074682;28;20435;-79
2022/10/23 09:39:47;;;;;;;16.20;13.90;;;13.40;96.00;;;;;;5053418;28;20094;-76
2022/10/23 09:42:23;;;;;;;14.80;10.48;;;13.50;96.10;;;;;;5074549;28;20048;-76
2022/10/23 09:44:52;;;;;;;22.73;13.85;;;13.60;96.10;;;;;;5071166;28;20037;-75
2022/10/23 09:47:21;;;;;;;14.73;12.23;;;13.60;96.00;;;;;;5046340;28;20068;-74
2022/10/23 09:49:55;;;;;;;19.92;12.65;;;13.60;96.00;;;;;;5044611;28;20102;-76
2022/10/23 09:52:27;;;;;;;18.30;12.60;;;13.60;95.80;;;;;;5064844;28;20473;-74
2022/10/23 09:54:56;;;;;;;17.50;13.15;;;13.70;95.90;;;;;;5063737;28;20131;-76
2022/10/23 09:57:42;;;;;;;20.42;13.27;;;13.70;95.80;;;;;;5062954;28;20494;-75
2022/10/23 10:00:16;;;;;;;19.40;12.48;;;13.70;95.70;;;;;;5062523;28;20048;-76
2022/10/23 10:02:53;;;;;;;19.67;12.27;;;13.70;95.70;;;;;;5061667;28;20420;-75
2022/10/23 10:05:32;;;;;;;15.48;11.27;;;13.80;95.70;;;;;;5052609;28;20040;-75
2022/10/23 10:08:19;;;;;;;12.82;10.45;;;13.80;95.70;;;;;;5053666;28;20086;-76
2022/10/23 10:11:18;;;;;;;17.83;12.05;;;13.80;95.70;;;;;;5053465;28;20037;-75
2022/10/23 10:14:08;;;;;;;17.75;12.02;;;13.90;95.60;;;;;;5053646;28;20511;-76
2022/10/23 10:16:58;;;;;;;13.35;10.57;;;13.90;95.60;;;;;;5052722;28;20037;-75
2022/10/23 10:20:02;;;;;;;17.20;11.35;;;14.00;95.50;;;;;;5059545;28;20054;-74
2022/10/23 10:22:51;;;;;;;21.27;11.55;;;14.00;95.40;;;;;;5028824;28;20061;-74
2022/10/23 10:25:38;;;;;;;15.50;11.10;;;14.10;95.50;;;;;;5057007;28;20032;-75
2022/10/23 10:28:20;;;;;;;20.70;11.13;;;14.20;95.50;;;;;;5054125;28;20060;-74
2022/10/23 10:30:55;;;;;;;12.55;8.40;;;14.30;95.40;;;;;;5058650;28;20037;-76
2022/10/23 10:33:46;;;;;;;13.93;10.02;;;14.40;95.30;;;;;;5041499;28;20041;-75
2022/10/23 10:36:34;;;;;;;15.35;9.68;;;14.50;95.20;;;;;;5057485;28;20048;-76
2022/10/23 10:39:02;;;;;;;17.90;10.90;;;14.50;95.20;;;;;;5053340;28;20123;-76
2022/10/23 10:41:27;;;;;;;22.00;10.30;;;14.60;95.00;;;;;;5053326;28;20045;-75
2022/10/23 10:44:25;;;;;;;14.57;8.77;;;14.60;95.00;;;;;;5053248;28;20043;-77
2022/10/23 10:47:10;;;;;;;12.93;9.30;;;14.70;95.00;;;;;;5053337;28;20069;-77
2022/10/23 10:49:51;;;;;;;14.20;8.07;;;14.80;94.80;;;;;;5053146;28;20428;-76
2022/10/23 10:52:20;;;;;;;11.50;8.23;;;14.90;94.80;;;;;;5052875;28;20048;-76
2022/10/23 10:55:01;;;;;;;14.27;8.40;;;14.90;94.50;;;;;;5053258;28;20040;-76
2022/10/23 10:57:33;;;;;;;11.43;7.95;;;15.00;94.60;;;;;;5052768;28;20045;-76
2022/10/23 11:00:05;;;;;;;11.70;8.00;;;15.00;94.50;;;;;;5052740;28;20397;-78
2022/10/23 11:02:40;;;;;;;12.30;7.22;;;15.00;94.40;;;;;;5036006;28;20043;-77
2022/10/23 11:05:29;;;;;;;11.50;6.35;;;15.10;94.30;;;;;;5053157;28;20045;-74
2022/10/23 11:08:00;;;;;;;9.75;6.40;;;15.10;94.40;;;;;;5052828;28;20037;-74
2022/10/23 11:10:27;;;;;;;10.60;7.93;;;15.10;94.40;;;;;;5053022;28;21683;-77
2022/10/23 11:12:53;;;;;;;13.73;7.68;;;15.10;93.90;;;;;;5053079;28;20123;-75
2022/10/23 11:15:37;;;;;;;8.85;6.82;;;15.20;94.10;;;;;;5054824;28;20084;-76
2022/10/23 11:18:11;;;;;;;8.35;6.72;;;15.20;93.90;;;;;;5058355;28;20136;-76
2022/10/23 11:21:07;;;;;;;8.15;5.60;;;15.20;93.80;;;;;;5035973;28;20090;-75
2022/10/23 11:23:58;;;;;;;11.20;6.40;;;15.30;93.70;;;;;;5052759;28;20129;-75
2022/10/23 11:27:01;;;;;;;10.32;5.80;;;15.30;93.40;;;;;;5035911;28;20083;-75
2022/10/23 11:29:39;;;;;;;9.30;5.78;;;15.30;93.50;;;;;;5052543;28;20047;-75
2022/10/23 11:32:20;;;;;;;10.77;6.25;;;15.30;93.20;;;;;;5052351;28;20072;-76
2022/10/23 11:35:03;;;;;;;8.27;5.65;;;15.40;93.50;;;;;;5052295;28;20094;-76
2022/10/23 11:37:29;;;;;;;8.65;5.95;;;15.40;93.60;;;;;;5035951;28;20123;-76
2022/10/23 11:40:07;;;;;;;11.90;5.43;;;15.50;93.20;;;;;;5035762;28;20087;-75
2022/10/23 11:42:46;;;;;;;5.70;4.65;;;15.40;93.20;;;;;;5052206;28;20072;-76
2022/10/23 11:45:33;;;;;;;8.32;5.00;;;15.50;93.30;;;;;;5052441;28;20044;-76
2022/10/23 11:48:02;;;;;;;8.75;5.40;;;15.50;93.40;;;;;;5052481;28;20465;-77
2022/10/23 11:50:49;;;;;;;10.40;5.22;;;15.50;93.30;;;;;;5051948;28;20041;-75
2022/10/23 11:53:38;;;;;;;9.10;4.47;;;15.50;93.30;;;;;;5034832;28;20136;-77
2022/10/23 11:56:23;;;;;;;10.68;5.55;;;15.50;93.20;;;;;;5052212;28;20080;-76
2022/10/23 11:58:58;;;;;;;8.98;4.50;;;15.50;93.20;;;;;;5051593;28;20516;-77
2022/10/23 12:01:29;;;;;;;12.32;5.25;;;15.50;93.20;;;;;;5051808;28;20057;-76
2022/10/23 12:04:13;;;;;;;10.75;4.85;;;15.50;93.10;;;;;;5051820;28;20501;-77
2022/10/23 12:07:01;;;;;;;6.38;4.60;;;15.50;93.10;;;;;;5051835;28;20037;-76
2022/10/23 12:09:38;;;;;;;10.98;5.65;;;15.50;93.10;;;;;;5051941;28;20065;-77
2022/10/23 12:12:13;;;;;;;9.88;5.20;;;15.50;93.10;;;;;;5035570;28;20048;-76
2022/10/23 12:14:48;;;;;;;8.02;4.88;;;15.50;92.90;;;;;;5035081;28;20122;-77
2022/10/23 12:17:23;;;;;;;8.73;5.25;;;15.50;93.00;;;;;;5051634;28;20052;-77
2022/10/23 12:20:07;;;;;;;7.55;4.90;;;15.50;92.90;;;;;;5051508;28;20094;-76
2022/10/23 12:23:05;;;;;;;14.93;5.22;;;15.50;92.90;;;;;;5051894;28;20033;-76
2022/10/23 12:25:49;;;;;;;8.45;4.68;;;15.50;92.60;;;;;;5050969;28;20119;-78
2022/10/23 12:29:31;;;;;;;6.90;4.73;;;15.50;92.80;;;;;;5051614;28;20033;-75
2022/10/23 12:32:41;;;;;;;9.93;5.30;;;15.40;92.40;;;;;;4939687;28;20135;-75
2022/10/23 12:35:25;;;;;;;11.52;5.68;;;15.50;92.50;;;;;;4956347;28;20035;-78
2022/10/23 12:38:13;;;;;;;9.57;4.85;;;15.50;92.50;;;;;;5045041;28;20088;-75
2022/10/23 12:40:39;;;;;;;8.10;4.63;;;15.50;92.70;;;;;;5034701;28;20182;-76
2022/10/23 12:43:27;;;;;;;10.23;4.55;;;15.50;92.60;;;;;;5051749;28;20124;-76
2022/10/23 12:45:55;;;;;;;10.57;4.88;;;15.40;92.70;;;;;;5051366;28;20090;-76
2022/10/23 12:48:23;;;;;;;9.80;4.85;;;15.40;92.60;;;;;;5034827;28;20052;-76
2022/10/23 12:50:53;;;;;;;9.30;4.05;;;15.40;92.60;;;;;;5051367;28;20047;-77
2022/10/23 12:53:21;;;;;;;7.70;4.47;;;15.50;92.70;;;;;;5051424;28;20040;-77
2022/10/23 12:56:00;;;;;;;9.52;4.50;;;15.40;92.70;;;;;;5051587;28;20171;-78